Hiler, New York
Current Conditions -  °F | °C
As of 9:54 PM on Wednesday 22 Oct 2014 (Local Time) from KBUF Reporting Station
Broken Clouds Broken Clouds  
Wind Chill: 44°   Ceiling: 3700
Heat Index: 47°   Visibility: 10mi
Dew Point: 41°   Wind: 7mph
Humidity: 80%   Direction: 340°NNW
Pressure: 30.21"   Gusts: NA
Location:  42.9735°N, 78.8457°W
Report Text: KBUF 230154Z 34006KT 10SM BKN037 BKN060 08/05 A3021 RMK AO2 SLP234 T00830050
Loading
Personal Weather Stations






























Interactive Weather Map
Tropical Storm Tracking
New forecast layout! Learn more

10-Day Weather Forecast

Advertisements
Track Severe Weather on mobile